Enter the Airport ICAO Code

Search by Airport or City

Current Weather

SAZM | Astor Piazzolla International Airport

Mar del Plata, Buenos Aires, Argentina

Last Update 46 Minutes Ago

Clear Sky

Temperature of 04 ºC

Moderate Winds from West

Temperature

04 ºC

Dew Point Temperature

02 ºC Below Zero

Relative Humidity

64.89 %

Wind Direction

West (270º, Without Significant Variations)

Wind Velocity

26 km/h (14 kt)

Gusts

None

Visibility

No Significant Reductions

Sea Level Pressure

1012 hPa (Hectopascals)

Layers of Clouds

None

METAR SAZM 131100Z 27014KT CAVOK 04/M02 Q1012

Weather Forecast

SAZM | Astor Piazzolla International Airport

Mar del Plata, Buenos Aires, Argentina

Forecast valid for the next 24 Hours

From now on it is expected:

Sky with Few Clouds

Moderate Winds from West

In 1 to 3 hours it is expected the begining of:

Moderate Winds from West with Gusts

In 8 to 10 hours it is expected the begining of:

Clear Sky

Moderate Winds from West

Maximum Temperature

09 ºC in 6 Hours

Minimum Temperature

01 ºC in 22 Hours

TAF SAZM 131100Z 1312/1412 27015KT 9999 FEW040TCU TX09/1318Z TN01/1410Z BECMG 1313/1315 25015G25KT BECMG 1320/1322 27010KT CAVOK